Time;durP1;ratioP1;P1;durP2;ratioP2;P2;SDS_P1;SDS_P2;PMS_P1;PMS_P2;Temp;Humidity;BMP_temperature;BMP_pressure;BME280_temperature;BME280_humidity;BME280_pressure;Samples;Min_cycle;Max_cycle;Signal;HPM_P1;HPM_P2
2022/01/12 00:00:51;;;;;;;9.43;7.60;;;0.70;99.90;;;;;;5001753;28;20426;-68
2022/01/12 00:03:17;;;;;;;12.30;7.70;;;0.60;99.90;;;;;;5000941;28;20964;-68
2022/01/12 00:05:43;;;;;;;8.50;6.87;;;0.60;99.90;;;;;;4998521;28;20519;-68
2022/01/12 00:08:08;;;;;;;9.13;7.97;;;0.60;99.90;;;;;;5001382;28;20530;-68
2022/01/12 00:10:35;;;;;;;10.63;7.57;;;0.50;99.90;;;;;;5001651;28;20190;-68
2022/01/12 00:13:00;;;;;;;10.27;7.23;;;0.50;99.90;;;;;;4997894;28;20294;-68
2022/01/12 00:15:26;;;;;;;7.80;7.00;;;0.40;99.90;;;;;;5004164;28;20550;-68
2022/01/12 00:17:52;;;;;;;9.63;6.77;;;0.30;99.90;;;;;;5005218;28;20261;-68
2022/01/12 00:20:17;;;;;;;8.20;7.40;;;0.30;99.90;;;;;;5000005;28;20179;-68
2022/01/12 00:22:44;;;;;;;10.73;8.47;;;0.30;99.90;;;;;;5003885;28;20619;-68
2022/01/12 00:25:24;;;;;;;12.60;8.53;;;0.20;99.90;;;;;;5003553;28;20207;-68
2022/01/12 00:33:20;;;;;;;9.60;7.53;;;0.20;99.90;;;;;;5000689;28;20468;-68
2022/01/12 00:35:48;;;;;;;11.07;7.63;;;0.20;99.90;;;;;;5002526;28;20486;-68
2022/01/12 00:38:15;;;;;;;9.43;7.10;;;0.20;99.90;;;;;;4995038;28;20430;-68
2022/01/12 00:40:43;;;;;;;12.23;9.07;;;0.10;99.90;;;;;;4996376;28;20437;-68
2022/01/12 00:43:10;;;;;;;15.00;9.77;;;0.00;99.90;;;;;;5007382;28;20433;-68
2022/01/12 00:45:38;;;;;;;9.33;7.63;;;0.00;99.90;;;;;;5006557;28;20481;-68
2022/01/12 00:48:04;;;;;;;9.03;7.77;;;0.00;99.90;;;;;;5006269;28;20453;-68
2022/01/12 00:50:30;;;;;;;11.37;8.83;;;0.00;99.90;;;;;;5003491;28;20435;-68
2022/01/12 00:52:55;;;;;;;8.83;7.50;;;0.00;99.90;;;;;;4996106;28;20466;-68
2022/01/12 00:55:21;;;;;;;10.60;8.07;;;0.00;99.90;;;;;;5000689;28;20653;-68
2022/01/12 00:57:47;;;;;;;10.93;8.47;;;0.00;99.90;;;;;;4994104;28;20187;-68
2022/01/12 01:00:13;;;;;;;14.20;8.10;;;0.00;99.90;;;;;;5002678;28;20638;-68
2022/01/12 01:02:39;;;;;;;10.03;7.63;;;-0.10;99.90;;;;;;5001106;28;20227;-68
2022/01/12 01:05:05;;;;;;;9.60;8.03;;;-0.10;99.90;;;;;;5005405;28;20465;-68
2022/01/12 01:07:31;;;;;;;9.83;8.80;;;-0.10;99.90;;;;;;4994894;28;20589;-68
2022/01/12 01:10:10;;;;;;;10.30;8.50;;;-0.20;99.90;;;;;;5002658;28;20505;-68
2022/01/12 01:12:36;;;;;;;12.27;8.70;;;-0.20;99.90;;;;;;5002792;28;20203;-68
2022/01/12 01:25:48;;;;;;;9.80;8.43;;;-0.20;99.90;;;;;;4997504;28;20572;-68
2022/01/12 01:28:15;;;;;;;9.87;7.17;;;-0.30;99.90;;;;;;5001542;28;20435;-68
2022/01/12 01:30:43;;;;;;;9.77;8.60;;;-0.30;99.90;;;;;;5001250;28;21097;-68
2022/01/12 01:33:10;;;;;;;9.43;7.97;;;-0.30;99.90;;;;;;5000673;28;20540;-68
2022/01/12 01:35:39;;;;;;;8.40;7.57;;;-0.30;99.90;;;;;;5002403;28;20448;-68
2022/01/12 01:38:07;;;;;;;9.40;7.93;;;-0.30;99.90;;;;;;4993825;28;21009;-68
2022/01/12 01:40:35;;;;;;;8.60;7.27;;;-0.30;99.90;;;;;;4997960;28;20896;-68
2022/01/12 01:53:50;;;;;;;13.60;8.60;;;-0.40;99.90;;;;;;5000978;28;20472;-68
2022/01/12 01:56:16;;;;;;;10.40;8.03;;;-0.40;99.90;;;;;;5011652;28;20484;-68
2022/01/12 01:58:41;;;;;;;11.13;9.87;;;-0.40;99.90;;;;;;5009795;28;20433;-68
2022/01/12 02:01:07;;;;;;;8.07;7.27;;;-0.40;99.90;;;;;;5005236;28;20448;-68
2022/01/12 02:03:33;;;;;;;10.50;8.80;;;-0.40;99.90;;;;;;4999299;28;20571;-68
2022/01/12 02:05:59;;;;;;;9.60;7.50;;;-0.40;99.90;;;;;;5001331;28;20524;-68
2022/01/12 02:08:25;;;;;;;9.27;7.67;;;-0.50;99.90;;;;;;5003782;28;20181;-68
2022/01/12 02:10:55;;;;;;;9.93;8.00;;;-0.50;99.90;;;;;;5012210;28;20183;-68
2022/01/12 02:13:20;;;;;;;10.60;8.80;;;-0.50;99.90;;;;;;5005840;28;20481;-68
2022/01/12 02:15:47;;;;;;;10.43;8.13;;;-0.50;99.90;;;;;;4999160;28;20438;-68
2022/01/12 02:40:23;;;;;;;8.60;7.17;;;-0.80;99.90;;;;;;5011252;28;20483;-68
2022/01/12 02:42:59;;;;;;;10.17;8.17;;;-0.70;99.90;;;;;;4997959;28;20914;-68
2022/01/12 02:51:07;;;;;;;9.70;8.07;;;-0.80;99.90;;;;;;5002240;28;20451;-68
2022/01/12 02:53:43;;;;;;;11.67;8.00;;;-0.80;99.90;;;;;;5000808;28;20567;-68
2022/01/12 02:56:13;;;;;;;9.70;7.80;;;-0.80;99.90;;;;;;5000915;28;20433;-68
2022/01/12 02:58:40;;;;;;;13.67;9.40;;;-0.80;99.90;;;;;;5004278;28;20492;-68
2022/01/12 03:03:41;;;;;;;10.27;8.43;;;-0.80;99.90;;;;;;5002604;28;20430;-68
2022/01/12 03:06:08;;;;;;;14.00;8.50;;;-0.80;99.90;;;;;;4998067;28;20936;-68
2022/01/12 03:08:38;;;;;;;10.73;8.37;;;-0.80;99.90;;;;;;5000842;28;20435;-68
2022/01/12 03:11:09;;;;;;;9.57;7.73;;;-0.80;99.90;;;;;;5006375;28;20451;-68
2022/01/12 03:13:36;;;;;;;11.90;8.83;;;-0.80;99.90;;;;;;5009112;28;21053;-68
2022/01/12 03:16:10;;;;;;;11.90;8.83;;;-0.80;99.90;;;;;;4996545;28;20439;-68
2022/01/12 03:18:36;;;;;;;10.47;8.10;;;-0.80;99.90;;;;;;5006148;28;20807;-68
2022/01/12 03:21:02;;;;;;;10.87;8.60;;;-0.90;99.90;;;;;;5005282;28;20451;-68
2022/01/12 03:23:28;;;;;;;12.20;10.00;;;-0.90;99.90;;;;;;4999419;28;20198;-68
2022/01/12 03:25:54;;;;;;;12.00;9.87;;;-1.00;99.90;;;;;;4998494;28;20441;-68
2022/01/12 03:28:20;;;;;;;17.20;10.80;;;-1.00;99.90;;;;;;5008227;28;20182;-68
2022/01/12 03:30:58;;;;;;;13.20;9.43;;;-1.10;99.90;;;;;;5009160;28;20438;-68
2022/01/12 03:36:23;;;;;;;12.70;8.80;;;-1.10;99.90;;;;;;5005507;28;20439;-69
2022/01/12 03:38:48;;;;;;;11.17;9.30;;;-1.10;99.90;;;;;;4997192;28;20484;-67
2022/01/12 03:41:14;;;;;;;11.87;8.37;;;-1.10;99.90;;;;;;5000435;28;20862;-67
2022/01/12 03:43:39;;;;;;;10.40;8.67;;;-1.10;99.90;;;;;;5004073;28;20443;-67
2022/01/12 03:46:05;;;;;;;13.43;10.93;;;-1.10;99.90;;;;;;4999842;28;20191;-67
2022/01/12 03:48:31;;;;;;;12.73;9.80;;;-1.10;99.90;;;;;;5006726;28;20183;-67
2022/01/12 03:50:56;;;;;;;10.03;8.80;;;-1.10;99.90;;;;;;5004985;28;20644;-67
2022/01/12 03:53:23;;;;;;;12.40;9.90;;;-1.10;99.90;;;;;;5005183;28;20198;-67
2022/01/12 03:55:48;;;;;;;14.90;9.10;;;-1.10;99.90;;;;;;5012802;28;20206;-67
2022/01/12 03:58:14;;;;;;;12.50;10.33;;;-1.10;99.90;;;;;;5008157;28;20959;-67
2022/01/12 04:00:40;;;;;;;13.80;9.83;;;-1.10;99.90;;;;;;5006070;28;20226;-68
2022/01/12 04:03:07;;;;;;;11.80;9.80;;;-1.10;99.90;;;;;;5003340;28;20266;-68
2022/01/12 04:08:21;;;;;;;14.50;9.80;;;-1.10;99.90;;;;;;5009805;28;20833;-68
2022/01/12 04:10:53;;;;;;;10.07;9.03;;;-1.10;99.90;;;;;;5000363;28;20434;-68
2022/01/12 04:13:22;;;;;;;11.87;9.80;;;-1.10;99.90;;;;;;5004022;28;20537;-68
2022/01/12 04:15:51;;;;;;;11.70;9.57;;;-1.10;99.90;;;;;;5000137;28;20775;-68
2022/01/12 04:18:16;;;;;;;16.77;10.17;;;-1.10;99.90;;;;;;4998849;28;20781;-68
2022/01/12 04:20:46;;;;;;;14.53;11.53;;;-1.20;99.90;;;;;;5003498;28;20426;-68
2022/01/12 04:23:19;;;;;;;16.77;10.07;;;-1.20;99.90;;;;;;4999185;28;20568;-69
2022/01/12 04:25:48;;;;;;;15.10;11.83;;;-1.20;99.90;;;;;;4996145;28;20437;-69
2022/01/12 04:28:15;;;;;;;17.63;10.67;;;-1.20;99.90;;;;;;4999579;28;20426;-68
2022/01/12 04:30:40;;;;;;;11.57;9.63;;;-1.20;99.90;;;;;;5004079;28;20438;-68
2022/01/12 04:33:06;;;;;;;13.57;10.17;;;-1.20;99.90;;;;;;5009997;28;20596;-69
2022/01/12 04:35:37;;;;;;;13.53;9.87;;;-1.20;99.90;;;;;;5007925;28;20209;-68
2022/01/12 04:38:04;;;;;;;12.23;9.77;;;-1.10;99.90;;;;;;4993860;28;20509;-68
2022/01/12 04:40:30;;;;;;;16.30;10.60;;;-1.10;99.90;;;;;;4998280;28;20488;-68
2022/01/12 04:42:56;;;;;;;11.27;9.77;;;-1.20;99.90;;;;;;5000725;28;21008;-69
2022/01/12 04:50:28;;;;;;;12.93;9.63;;;-1.30;99.90;;;;;;5008043;28;20477;-69
2022/01/12 04:52:55;;;;;;;12.57;10.50;;;-1.30;99.90;;;;;;5000076;28;20486;-68
2022/01/12 04:55:21;;;;;;;13.63;10.50;;;-1.40;99.90;;;;;;4997860;28;20439;-68
2022/01/12 04:57:47;;;;;;;16.67;11.73;;;-1.40;99.90;;;;;;5005043;28;20435;-69
2022/01/12 05:00:15;;;;;;;15.50;10.93;;;-1.40;99.90;;;;;;5009121;28;20175;-68
2022/01/12 05:08:23;;;;;;;13.70;11.33;;;-1.50;99.90;;;;;;5004724;28;20572;-69
2022/01/12 05:13:35;;;;;;;12.97;11.13;;;-1.50;99.90;;;;;;4998772;28;20508;-68
2022/01/12 05:16:01;;;;;;;13.87;9.93;;;-1.40;99.90;;;;;;5003764;28;20434;-68
2022/01/12 05:18:33;;;;;;;15.50;11.80;;;-1.50;99.90;;;;;;5010242;28;20429;-68
2022/01/12 05:21:00;;;;;;;15.53;11.40;;;-1.50;99.90;;;;;;5010364;28;20802;-69
2022/01/12 05:23:26;;;;;;;12.40;10.43;;;-1.50;99.90;;;;;;5010848;28;20536;-68
2022/01/12 05:25:52;;;;;;;16.43;12.23;;;-1.50;99.90;;;;;;5002649;28;20434;-69
2022/01/12 05:28:20;;;;;;;14.30;10.57;;;-1.50;99.90;;;;;;5001521;28;20430;-69
2022/01/12 05:30:47;;;;;;;13.23;10.57;;;-1.60;99.90;;;;;;5006937;28;20448;-69
2022/01/12 05:33:13;;;;;;;13.30;10.50;;;-1.50;99.90;;;;;;5007902;28;20453;-68
2022/01/12 05:35:39;;;;;;;14.17;11.60;;;-1.60;99.90;;;;;;4999747;28;20480;-68
2022/01/12 05:38:08;;;;;;;13.50;10.70;;;-1.60;99.90;;;;;;5010765;28;21231;-68
2022/01/12 05:40:33;;;;;;;14.57;11.83;;;-1.60;99.90;;;;;;5006669;28;20171;-69
2022/01/12 05:43:00;;;;;;;20.33;14.13;;;-1.60;99.90;;;;;;5010883;28;20462;-68
2022/01/12 05:45:27;;;;;;;11.90;10.00;;;-1.60;99.90;;;;;;5008030;28;20175;-69
2022/01/12 05:50:21;;;;;;;14.63;11.30;;;-1.70;99.90;;;;;;5004401;28;20438;-69
2022/01/12 05:52:47;;;;;;;13.87;11.67;;;-1.70;99.90;;;;;;5003176;28;20465;-68
2022/01/12 05:55:13;;;;;;;17.40;12.87;;;-1.80;99.90;;;;;;5009345;28;20481;-68
2022/01/12 05:57:40;;;;;;;17.10;11.87;;;-1.70;99.90;;;;;;5002818;28;20176;-68
2022/01/12 06:00:09;;;;;;;19.10;14.73;;;-1.70;99.90;;;;;;5001446;28;20480;-69
2022/01/12 06:02:34;;;;;;;18.60;14.10;;;-1.70;99.90;;;;;;5003048;28;20470;-70
2022/01/12 06:05:01;;;;;;;20.80;15.33;;;-1.70;99.90;;;;;;5008640;28;20457;-69
2022/01/12 06:07:26;;;;;;;18.70;14.60;;;-1.80;99.90;;;;;;5003761;28;20179;-69
2022/01/12 06:09:52;;;;;;;21.07;16.63;;;-1.70;99.90;;;;;;5012127;28;20445;-69
2022/01/12 06:12:18;;;;;;;19.97;14.57;;;-1.70;99.90;;;;;;5012753;28;20286;-68
2022/01/12 06:14:43;;;;;;;21.00;13.50;;;-1.70;99.90;;;;;;5002747;28;20210;-69
2022/01/12 06:17:10;;;;;;;14.83;12.13;;;-1.70;99.90;;;;;;4998778;28;20208;-69
2022/01/12 06:19:36;;;;;;;17.97;13.50;;;-1.70;99.90;;;;;;5011129;28;20237;-69
2022/01/12 06:22:03;;;;;;;20.67;14.90;;;-1.70;99.90;;;;;;5007974;28;20481;-69
2022/01/12 06:24:28;;;;;;;19.30;14.40;;;-1.70;99.90;;;;;;5004153;28;20543;-69
2022/01/12 06:26:55;;;;;;;16.63;13.70;;;-1.70;99.90;;;;;;4999075;28;20470;-69
2022/01/12 06:31:50;;;;;;;21.73;15.17;;;-1.70;99.90;;;;;;5003943;28;20605;-69
2022/01/12 06:34:16;;;;;;;18.30;13.20;;;-1.80;99.90;;;;;;4998126;28;20195;-69
2022/01/12 06:36:42;;;;;;;18.13;13.37;;;-1.80;99.90;;;;;;4998017;28;20446;-68
2022/01/12 06:39:17;;;;;;;21.03;14.23;;;-1.90;99.90;;;;;;5002464;28;20524;-68
2022/01/12 06:41:44;;;;;;;24.33;15.37;;;-1.90;99.90;;;;;;4998331;28;20454;-69
2022/01/12 06:44:14;;;;;;;19.67;15.17;;;-2.00;99.90;;;;;;5010944;28;20457;-69
2022/01/12 06:46:39;;;;;;;21.30;14.70;;;-2.00;99.90;;;;;;5001391;28;20444;-69
2022/01/12 06:49:05;;;;;;;19.33;14.30;;;-2.00;99.90;;;;;;5009451;28;20438;-69
2022/01/12 06:51:30;;;;;;;24.33;14.47;;;-2.00;99.90;;;;;;4997517;28;20666;-69
2022/01/12 06:53:56;;;;;;;18.63;15.73;;;-1.90;99.90;;;;;;5010102;28;20198;-69
2022/01/12 06:56:22;;;;;;;19.00;14.20;;;-1.90;99.90;;;;;;5001343;28;20176;-69
2022/01/12 06:58:48;;;;;;;21.53;16.10;;;-2.00;99.90;;;;;;5004635;28;20179;-68
2022/01/12 07:01:14;;;;;;;27.60;18.47;;;-2.00;99.90;;;;;;5004267;28;20588;-69
2022/01/12 07:03:40;;;;;;;25.30;17.37;;;-2.10;99.90;;;;;;5008674;28;20465;-69
2022/01/12 07:06:05;;;;;;;22.93;17.87;;;-2.10;99.90;;;;;;5007238;28;20470;-68
2022/01/12 07:08:36;;;;;;;22.83;16.93;;;-2.10;99.90;;;;;;5002253;28;20175;-69
2022/01/12 07:11:02;;;;;;;25.97;17.40;;;-2.10;99.90;;;;;;5001957;28;20198;-68
2022/01/12 07:13:28;;;;;;;28.70;19.40;;;-2.10;99.90;;;;;;4996164;28;20533;-69
2022/01/12 07:15:54;;;;;;;24.57;17.00;;;-2.10;99.90;;;;;;5002871;28;20459;-68
2022/01/12 07:18:21;;;;;;;30.33;17.27;;;-2.20;99.90;;;;;;4999927;28;20681;-69
2022/01/12 07:20:48;;;;;;;28.23;18.70;;;-2.20;99.90;;;;;;5006485;28;20522;-68
2022/01/12 07:23:13;;;;;;;27.93;19.53;;;-2.10;99.90;;;;;;5009129;28;20449;-65
2022/01/12 07:25:39;;;;;;;28.90;20.00;;;-2.10;99.90;;;;;;5007299;28;20442;-65
2022/01/12 07:28:05;;;;;;;28.77;19.43;;;-2.00;99.90;;;;;;5001724;28;20837;-68
2022/01/12 07:30:30;;;;;;;24.23;17.57;;;-1.90;99.90;;;;;;5004240;28;20246;-69
2022/01/12 07:32:56;;;;;;;28.30;18.03;;;-1.90;99.90;;;;;;4994792;28;20208;-69
2022/01/12 07:35:21;;;;;;;39.37;21.90;;;-2.00;99.90;;;;;;4999216;28;20182;-69
2022/01/12 07:37:47;;;;;;;24.43;17.57;;;-2.00;99.90;;;;;;5000088;28;20175;-70
2022/01/12 07:40:13;;;;;;;29.23;19.10;;;-2.00;99.90;;;;;;5006312;28;20195;-69
2022/01/12 07:42:39;;;;;;;25.53;16.80;;;-1.90;99.90;;;;;;4997841;28;20580;-70
2022/01/12 07:45:05;;;;;;;23.17;16.17;;;-1.90;99.90;;;;;;4993400;28;20445;-70
2022/01/12 07:47:31;;;;;;;28.13;18.00;;;-1.90;99.90;;;;;;5006462;28;20736;-70
2022/01/12 07:49:59;;;;;;;24.53;16.43;;;-1.90;99.90;;;;;;5000448;28;20443;-70
2022/01/12 07:52:25;;;;;;;28.03;19.07;;;-1.80;99.90;;;;;;4987617;28;21327;-69
2022/01/12 07:54:51;;;;;;;26.30;17.13;;;-1.60;99.90;;;;;;4970026;28;20439;-68
2022/01/12 07:57:17;;;;;;;23.40;17.27;;;-1.50;99.90;;;;;;4992208;28;20444;-67
2022/01/12 07:59:43;;;;;;;24.53;16.07;;;-1.30;99.90;;;;;;4997560;28;20271;-67
2022/01/12 08:02:09;;;;;;;24.63;17.37;;;-1.10;99.90;;;;;;4993513;28;20446;-67
2022/01/12 08:04:35;;;;;;;23.50;18.07;;;-0.80;99.90;;;;;;4992991;28;20443;-67
2022/01/12 08:07:02;;;;;;;22.03;15.87;;;-0.60;99.90;;;;;;5003620;28;20433;-67
2022/01/12 08:09:28;;;;;;;20.57;15.70;;;-0.30;99.90;;;;;;5001207;28;20266;-68
2022/01/12 08:11:53;;;;;;;18.17;14.77;;;0.70;99.90;;;;;;4996916;28;21045;-68
2022/01/12 08:14:19;;;;;;;18.57;14.17;;;1.70;99.90;;;;;;4997729;28;20207;-68
2022/01/12 08:16:44;;;;;;;15.90;13.33;;;2.40;99.90;;;;;;4995683;28;20180;-68
2022/01/12 08:19:10;;;;;;;16.23;14.13;;;3.20;99.90;;;;;;5008374;28;20645;-66
2022/01/12 08:21:36;;;;;;;17.13;14.70;;;3.90;99.90;;;;;;5000621;28;20241;-67
2022/01/12 08:24:02;;;;;;;14.70;13.13;;;4.50;99.90;;;;;;5003260;28;20175;-67
2022/01/12 08:26:27;;;;;;;15.93;14.20;;;5.20;99.90;;;;;;5002342;28;20443;-67
2022/01/12 08:28:53;;;;;;;21.47;17.20;;;6.10;99.90;;;;;;5003144;28;20213;-68
2022/01/12 08:31:20;;;;;;;21.97;19.63;;;6.90;99.90;;;;;;5010130;28;20199;-69
2022/01/12 08:33:47;;;;;;;20.83;18.13;;;7.60;99.90;;;;;;5003671;28;20665;-68
2022/01/12 08:36:13;;;;;;;19.07;16.87;;;8.40;99.90;;;;;;4995028;28;20446;-68
2022/01/12 08:38:39;;;;;;;18.83;17.03;;;9.00;99.90;;;;;;4997999;28;20445;-68
2022/01/12 08:41:04;;;;;;;14.70;13.30;;;10.00;99.90;;;;;;5005106;28;20548;-67
2022/01/12 08:43:30;;;;;;;14.03;12.60;;;10.70;99.40;;;;;;4997666;28;20179;-68
2022/01/12 08:45:56;;;;;;;17.30;15.57;;;10.80;96.50;;;;;;5008056;28;20640;-68
2022/01/12 08:48:21;;;;;;;14.47;13.07;;;9.70;96.90;;;;;;5000896;28;20175;-68
2022/01/12 08:50:48;;;;;;;19.90;17.50;;;9.20;97.40;;;;;;5000255;28;20210;-67
2022/01/12 08:53:13;;;;;;;15.13;12.80;;;8.50;97.60;;;;;;4993017;28;20450;-68
2022/01/12 08:55:39;;;;;;;15.40;13.80;;;7.90;98.30;;;;;;5007574;28;20520;-68
2022/01/12 08:58:05;;;;;;;13.93;12.53;;;7.20;99.90;;;;;;5001543;28;20195;-68
2022/01/12 09:00:31;;;;;;;15.00;13.53;;;7.20;99.90;;;;;;5005047;28;20454;-68
2022/01/12 09:02:57;;;;;;;13.50;12.10;;;7.80;99.90;;;;;;5001513;28;20970;-68
2022/01/12 09:05:22;;;;;;;14.27;12.77;;;8.10;98.90;;;;;;5000346;28;20199;-68
2022/01/12 09:07:48;;;;;;;13.53;12.23;;;8.40;98.70;;;;;;4998725;28;20199;-68
2022/01/12 09:10:14;;;;;;;14.43;12.97;;;8.40;97.70;;;;;;5003928;28;20172;-68
2022/01/12 09:12:40;;;;;;;14.30;12.70;;;8.60;98.50;;;;;;4993303;28;20218;-68
2022/01/12 09:15:10;;;;;;;13.30;12.10;;;8.20;96.90;;;;;;4992535;28;20427;-67
2022/01/12 09:17:36;;;;;;;15.40;12.33;;;7.30;98.00;;;;;;4995856;28;20254;-68
2022/01/12 09:20:04;;;;;;;15.10;13.60;;;6.70;99.90;;;;;;4998925;28;20434;-67
2022/01/12 09:22:29;;;;;;;15.37;13.77;;;6.40;99.90;;;;;;4998779;28;20458;-68
2022/01/12 09:24:55;;;;;;;13.13;11.90;;;5.90;99.90;;;;;;5003475;28;21221;-68
2022/01/12 09:27:20;;;;;;;12.57;11.43;;;6.00;99.90;;;;;;4999479;28;20708;-67
2022/01/12 09:29:47;;;;;;;14.40;12.97;;;5.50;99.90;;;;;;5007942;28;20206;-67
2022/01/12 09:32:13;;;;;;;14.77;12.60;;;5.30;99.90;;;;;;5004233;28;20199;-67
2022/01/12 09:34:39;;;;;;;14.20;12.33;;;5.60;99.90;;;;;;4994875;28;20445;-65
2022/01/12 09:37:05;;;;;;;13.53;11.90;;;6.20;99.90;;;;;;4994783;28;20984;-66
2022/01/12 09:39:31;;;;;;;14.50;13.10;;;6.50;99.90;;;;;;4998924;28;20438;-65
2022/01/12 09:41:57;;;;;;;12.47;11.27;;;6.50;99.90;;;;;;5000273;28;20869;-65
2022/01/12 09:44:31;;;;;;;12.90;11.60;;;6.90;99.90;;;;;;4999708;28;20426;-66
2022/01/12 09:46:59;;;;;;;13.57;12.17;;;8.10;99.50;;;;;;5002097;28;20445;-65
2022/01/12 09:49:24;;;;;;;12.57;11.30;;;7.80;98.10;;;;;;4998865;28;20442;-65
2022/01/12 09:51:51;;;;;;;12.30;10.90;;;7.50;98.40;;;;;;4994640;28;20821;-65
2022/01/12 09:54:18;;;;;;;13.43;11.83;;;7.50;99.30;;;;;;4995393;28;20172;-66
2022/01/12 09:56:44;;;;;;;13.43;12.10;;;7.90;97.80;;;;;;5002970;28;20448;-66
2022/01/12 09:59:10;;;;;;;12.60;11.30;;;9.30;96.80;;;;;;4996216;28;20470;-66
2022/01/12 10:01:39;;;;;;;14.17;12.67;;;11.20;93.40;;;;;;5006095;28;20485;-65
2022/01/12 10:04:10;;;;;;;12.00;10.90;;;13.10;89.20;;;;;;5000851;28;20183;-65
2022/01/12 10:06:38;;;;;;;13.50;12.20;;;13.30;80.90;;;;;;4998356;28;20589;-65
2022/01/12 10:09:03;;;;;;;11.47;10.43;;;13.20;77.60;;;;;;5008111;28;20998;-65
2022/01/12 10:11:29;;;;;;;13.90;12.57;;;14.70;76.00;;;;;;5002502;28;20553;-65
2022/01/12 10:13:56;;;;;;;13.93;12.87;;;16.50;69.20;;;;;;5003949;28;20697;-65
2022/01/12 10:16:26;;;;;;;13.40;10.67;;;16.60;61.50;;;;;;5003943;28;20234;-65
2022/01/12 10:18:54;;;;;;;12.23;11.03;;;16.40;59.00;;;;;;5000510;28;20449;-65
2022/01/12 10:21:38;;;;;;;11.93;10.67;;;17.40;57.30;;;;;;5002976;28;20774;-65
2022/01/12 10:24:06;;;;;;;12.73;11.53;;;17.20;55.50;;;;;;4999151;28;20450;-65
2022/01/12 10:26:43;;;;;;;12.70;11.50;;;17.00;54.90;;;;;;5005350;28;21035;-65
2022/01/12 10:29:28;;;;;;;12.00;11.00;;;17.60;53.60;;;;;;5002260;28;20964;-65
2022/01/12 10:32:02;;;;;;;12.80;11.80;;;17.40;52.60;;;;;;4997105;28;20462;-65
2022/01/12 10:34:35;;;;;;;12.73;11.73;;;16.50;53.00;;;;;;4996345;28;20504;-64
2022/01/12 10:37:04;;;;;;;11.07;10.00;;;16.90;53.00;;;;;;4997532;28;20489;-65
2022/01/12 10:39:30;;;;;;;11.93;10.93;;;17.90;51.10;;;;;;5004301;28;21124;-65
2022/01/12 10:42:05;;;;;;;11.40;10.50;;;18.70;50.30;;;;;;4998279;28;20557;-65
2022/01/12 10:44:33;;;;;;;11.93;10.93;;;20.00;48.10;;;;;;4990852;28;20221;-65
2022/01/12 10:47:13;;;;;;;13.13;12.03;;;20.90;46.10;;;;;;4991207;28;20987;-66
2022/01/12 10:49:42;;;;;;;12.57;11.40;;;20.50;45.30;;;;;;5004451;28;20443;-65
2022/01/12 10:52:10;;;;;;;13.10;12.00;;;18.50;45.90;;;;;;4998788;28;20473;-65
2022/01/12 10:54:44;;;;;;;13.07;11.90;;;16.20;48.90;;;;;;4995384;28;20801;-66
2022/01/12 10:57:22;;;;;;;12.47;11.37;;;15.90;50.90;;;;;;5005253;28;20517;-65
2022/01/12 11:00:10;;;;;;;13.37;12.07;;;16.80;50.30;;;;;;4992906;28;20438;-66
2022/01/12 11:02:38;;;;;;;12.23;11.13;;;18.20;47.90;;;;;;4994433;28;20490;-65
2022/01/12 11:05:05;;;;;;;12.73;11.67;;;18.90;46.40;;;;;;4990262;28;20450;-66
2022/01/12 11:07:30;;;;;;;13.43;12.23;;;19.40;46.20;;;;;;5006924;28;20816;-66
2022/01/12 11:09:59;;;;;;;12.87;11.70;;;20.70;44.70;;;;;;4999356;28;20449;-65
2022/01/12 11:12:25;;;;;;;12.33;11.23;;;21.30;42.90;;;;;;4995419;28;20203;-65
2022/01/12 11:14:51;;;;;;;13.87;12.60;;;20.70;43.50;;;;;;4994506;28;20442;-65
2022/01/12 11:17:17;;;;;;;13.10;11.90;;;20.90;43.50;;;;;;4998782;28;20445;-65
2022/01/12 11:19:54;;;;;;;12.10;11.20;;;21.50;42.10;;;;;;5005628;28;20537;-65
2022/01/12 11:22:45;;;;;;;13.13;12.03;;;21.40;42.30;;;;;;4991092;28;20463;-64
2022/01/12 11:25:19;;;;;;;12.70;11.70;;;21.90;42.10;;;;;;4991540;28;20450;-68
2022/01/12 11:27:44;;;;;;;15.20;14.00;;;21.50;41.80;;;;;;5000019;28;20968;-65
2022/01/12 11:30:22;;;;;;;15.87;14.57;;;21.00;41.80;;;;;;4997421;28;20500;-66
2022/01/12 11:33:03;;;;;;;16.27;14.83;;;20.70;42.10;;;;;;4997787;28;20207;-64
2022/01/12 11:35:32;;;;;;;15.20;14.00;;;19.90;43.20;;;;;;4993050;28;20466;-66
2022/01/12 11:37:59;;;;;;;16.60;15.13;;;20.60;42.60;;;;;;5002135;28;20583;-66
2022/01/12 11:40:54;;;;;;;16.03;14.70;;;21.10;42.00;;;;;;5005392;28;20433;-66
2022/01/12 11:43:27;;;;;;;18.60;17.10;;;22.00;40.70;;;;;;4995149;28;20453;-66
2022/01/12 11:46:11;;;;;;;16.60;15.30;;;21.00;41.60;;;;;;4995468;28;20865;-65
2022/01/12 11:48:46;;;;;;;17.03;15.33;;;20.40;42.40;;;;;;4995963;28;20470;-65
2022/01/12 11:51:14;;;;;;;16.27;14.67;;;19.90;42.40;;;;;;4998133;28;20971;-64
2022/01/12 11:53:44;;;;;;;15.73;14.23;;;21.20;42.20;;;;;;4996532;28;20505;-64
2022/01/12 11:56:19;;;;;;;16.60;15.30;;;22.00;40.60;;;;;;4991313;28;20435;-65
2022/01/12 11:58:56;;;;;;;14.83;13.63;;;21.80;40.50;;;;;;4992366;28;20440;-67
2022/01/12 12:01:24;;;;;;;14.33;13.23;;;22.40;39.50;;;;;;4997256;28;21000;-66
2022/01/12 12:03:57;;;;;;;14.50;13.40;;;22.70;38.80;;;;;;4997419;28;20595;-65
2022/01/12 12:06:23;;;;;;;13.87;12.57;;;23.00;38.20;;;;;;5002645;28;20530;-65
2022/01/12 12:08:57;;;;;;;13.03;11.83;;;23.20;38.40;;;;;;4999645;28;20534;-66
2022/01/12 12:11:25;;;;;;;13.87;12.47;;;23.90;37.60;;;;;;4999249;28;20202;-64
2022/01/12 12:13:51;;;;;;;13.70;12.60;;;24.10;36.60;;;;;;4987730;28;20466;-66
2022/01/12 12:16:16;;;;;;;13.07;12.07;;;24.20;36.10;;;;;;4998609;28;20499;-65
2022/01/12 12:18:43;;;;;;;13.27;12.17;;;23.20;37.00;;;;;;5002659;28;20174;-64
2022/01/12 12:21:08;;;;;;;13.50;12.30;;;22.60;37.20;;;;;;4992534;28;20288;-65
2022/01/12 12:23:34;;;;;;;12.27;11.27;;;22.20;38.30;;;;;;4998519;28;21051;-65
2022/01/12 12:26:06;;;;;;;14.70;13.40;;;22.10;38.40;;;;;;4995774;28;20217;-65
2022/01/12 12:28:31;;;;;;;12.80;11.70;;;21.00;39.00;;;;;;4999380;28;20255;-65
2022/01/12 12:30:57;;;;;;;13.00;12.00;;;21.30;39.20;;;;;;5003112;28;20454;-65
2022/01/12 12:33:23;;;;;;;13.23;12.03;;;21.40;39.10;;;;;;4994672;28;20216;-65
2022/01/12 12:35:49;;;;;;;13.07;12.00;;;21.70;37.90;;;;;;4992764;28;20590;-65
2022/01/12 12:38:19;;;;;;;13.00;11.93;;;21.90;37.90;;;;;;5001897;28;20430;-66
2022/01/12 12:40:50;;;;;;;13.17;12.10;;;21.60;37.80;;;;;;5005676;28;20190;-65
2022/01/12 12:43:27;;;;;;;12.67;11.67;;;21.10;38.50;;;;;;4987100;28;20466;-66
2022/01/12 12:45:59;;;;;;;18.27;16.67;;;21.80;38.20;;;;;;4991836;28;20533;-65
2022/01/12 12:48:28;;;;;;;13.57;12.37;;;22.00;37.50;;;;;;5004573;28;20442;-66
2022/01/12 12:51:02;;;;;;;14.73;13.43;;;22.60;37.20;;;;;;4997053;28;20441;-65
2022/01/12 12:53:32;;;;;;;14.50;13.20;;;23.00;36.60;;;;;;5001635;28;20979;-65
2022/01/12 12:55:59;;;;;;;12.77;11.67;;;22.60;37.00;;;;;;5002401;28;20991;-66
2022/01/12 12:58:26;;;;;;;13.63;12.50;;;23.80;35.70;;;;;;4998888;28;20440;-65
2022/01/12 13:00:51;;;;;;;14.83;13.50;;;22.70;35.00;;;;;;5002383;28;20468;-65
2022/01/12 13:03:17;;;;;;;13.47;12.40;;;20.00;38.10;;;;;;4991029;28;21174;-66
2022/01/12 13:05:43;;;;;;;14.20;12.90;;;21.50;38.30;;;;;;5001970;28;20183;-66
2022/01/12 13:08:10;;;;;;;14.80;13.50;;;21.20;37.50;;;;;;5004228;28;20285;-66
2022/01/12 13:10:36;;;;;;;14.20;12.90;;;19.20;39.30;;;;;;4993869;28;20644;-66
2022/01/12 13:13:04;;;;;;;14.67;13.17;;;20.10;39.60;;;;;;4994820;28;20459;-65
2022/01/12 13:15:36;;;;;;;17.17;15.43;;;21.60;38.40;;;;;;4991528;28;20474;-65
2022/01/12 13:18:07;;;;;;;12.70;11.60;;;21.40;36.90;;;;;;4993066;28;20986;-64
2022/01/12 13:23:22;;;;;;;13.60;12.50;;;23.20;35.90;;;;;;4998122;28;20527;-65
2022/01/12 13:26:01;;;;;;;14.33;13.03;;;24.20;35.20;;;;;;4994808;28;20450;-64
2022/01/12 13:28:27;;;;;;;13.97;12.67;;;25.30;34.20;;;;;;4995648;28;20816;-65
2022/01/12 13:30:58;;;;;;;13.43;12.40;;;26.00;33.80;;;;;;4998624;28;20438;-65
2022/01/12 13:33:31;;;;;;;13.70;12.50;;;26.20;32.80;;;;;;4995233;28;21063;-66
2022/01/12 13:35:58;;;;;;;13.73;12.63;;;26.20;32.70;;;;;;4995855;28;21012;-66
2022/01/12 13:38:33;;;;;;;13.37;12.27;;;25.80;32.70;;;;;;5003968;28;20474;-65
2022/01/12 13:41:10;;;;;;;13.00;11.90;;;23.80;33.80;;;;;;4998285;28;20807;-66
2022/01/12 13:43:37;;;;;;;22.73;13.03;;;22.90;35.10;;;;;;4992592;28;20532;-65
2022/01/12 13:46:12;;;;;;;14.40;13.20;;;22.20;35.70;;;;;;5001777;28;20481;-65
2022/01/12 13:48:41;;;;;;;14.53;13.33;;;21.50;36.10;;;;;;5007224;28;20506;-65
2022/01/12 13:51:07;;;;;;;15.87;14.43;;;20.00;37.60;;;;;;4997525;28;20455;-64
2022/01/12 13:53:37;;;;;;;15.07;13.67;;;18.50;39.20;;;;;;4994312;28;20556;-65
2022/01/12 13:56:05;;;;;;;16.33;14.37;;;15.60;42.50;;;;;;5004590;28;20179;-65
2022/01/12 13:58:32;;;;;;;17.03;14.40;;;13.20;46.10;;;;;;5007008;28;20449;-65
2022/01/12 14:01:16;;;;;;;16.60;13.83;;;12.10;48.70;;;;;;5000181;28;20465;-64